Time;durP1;ratioP1;P1;durP2;ratioP2;P2;SDS_P1;SDS_P2;PMS_P1;PMS_P2;Temp;Humidity;BMP_temperature;BMP_pressure;BME280_temperature;BME280_humidity;BME280_pressure;Samples;Min_cycle;Max_cycle;Signal;HPM_P1;HPM_P2
2022/06/03 00:00:25;;;;;;;8.27;4.22;;;;;;;;;;5013639;28;20029;-49
2022/06/03 00:02:55;;;;;;;6.65;4.18;;;;;;;;;;5016189;28;20044;-54
2022/06/03 00:05:20;;;;;;;;;;;;;;;;;;5018098;28;20206;-52
2022/06/03 00:07:49;;;;;;;8.60;4.13;;;;;;;;;;5014098;28;20079;-52
2022/06/03 00:10:26;;;;;;;5.47;3.63;;;;;;;;;;5019088;28;20128;-52
2022/06/03 00:12:52;;;;;;;10.30;4.25;;;;;;;;;;5019287;28;20065;-52
2022/06/03 00:15:23;;;;;;;7.35;4.10;;;;;;;;;;5013474;28;20052;-52
2022/06/03 00:17:49;;;;;;;6.13;3.88;;;;;;;;;;5019109;28;20033;-53
2022/06/03 00:20:14;;;;;;;8.40;3.97;;;;;;;;;;5022953;28;20067;-52
2022/06/03 00:22:52;;;;;;;6.50;4.07;;;;;;;;;;5021599;28;20268;-52
2022/06/03 00:25:26;;;;;;;6.55;4.00;;;;;;;;;;5013103;28;20025;-53
2022/06/03 00:28:24;;;;;;;8.50;4.20;;;;;;;;;;5014094;28;20029;-52
2022/06/03 00:30:52;;;;;;;6.43;3.90;;;;;;;;;;4985928;28;20446;-54
2022/06/03 00:33:17;;;;;;;8.68;4.00;;;;;;;;;;5020183;28;20061;-52
2022/06/03 00:35:42;;;;;;;9.95;4.78;;;;;;;;;;5023526;28;20049;-51
2022/06/03 00:38:11;;;;;;;6.50;4.20;;;;;;;;;;5024269;28;20021;-53
2022/06/03 00:40:52;;;;;;;9.15;4.65;;;;;;;;;;5020983;28;20785;-52
2022/06/03 00:43:27;;;;;;;6.95;4.85;;;;;;;;;;5012907;28;20022;-52
2022/06/03 00:45:52;;;;;;;11.65;4.90;;;;;;;;;;5020638;28;20022;-50
2022/06/03 00:48:20;;;;;;;7.03;4.38;;;;;;;;;;5022471;28;20481;-52
2022/06/03 00:50:58;;;;;;;8.27;4.40;;;;;;;;;;5025106;28;20034;-51
2022/06/03 00:53:40;;;;;;;10.40;4.72;;;;;;;;;;5020997;28;20027;-52
2022/06/03 00:56:20;;;;;;;7.65;4.45;;;;;;;;;;5017341;28;20044;-50
2022/06/03 00:59:04;;;;;;;7.38;4.40;;;;;;;;;;5017211;28;20021;-52
2022/06/03 01:01:48;;;;;;;7.97;4.63;;;;;;;;;;5019404;28;20519;-52
2022/06/03 01:04:35;;;;;;;7.00;4.47;;;;;;;;;;5020095;28;20038;-51
2022/06/03 01:07:12;;;;;;;7.53;5.03;;;;;;;;;;5018462;28;20032;-51
2022/06/03 01:09:52;;;;;;;7.65;4.40;;;;;;;;;;5020778;28;20108;-53
2022/06/03 01:12:45;;;;;;;6.93;4.72;;;;;;;;;;5020695;28;20104;-51
2022/06/03 01:15:17;;;;;;;6.80;4.13;;;;;;;;;;4991408;28;20043;-55
2022/06/03 01:18:09;;;;;;;8.20;4.30;;;;;;;;;;5003726;28;20025;-52
2022/06/03 01:20:38;;;;;;;7.70;4.40;;;;;;;;;;5004469;28;20029;-51
2022/06/03 01:23:22;;;;;;;8.23;4.80;;;;;;;;;;5013203;28;20058;-51
2022/06/03 01:26:06;;;;;;;7.70;4.07;;;;;;;;;;5011531;28;20245;-53
2022/06/03 01:28:37;;;;;;;7.05;4.72;;;;;;;;;;5013545;28;20112;-53
2022/06/03 01:31:22;;;;;;;5.60;4.15;;;;;;;;;;5008651;28;20117;-52
2022/06/03 01:33:50;;;;;;;10.25;5.03;;;;;;;;;;4996311;28;20066;-53
2022/06/03 01:36:34;;;;;;;8.48;4.43;;;;;;;;;;5004375;28;20560;-51
2022/06/03 01:39:17;;;;;;;7.45;4.68;;;;;;;;;;4981103;28;20037;-52
2022/06/03 01:41:52;;;;;;;8.05;4.28;;;;;;;;;;4995514;28;20104;-54
2022/06/03 01:44:36;;;;;;;7.35;4.10;;;;;;;;;;4997434;28;20075;-54
2022/06/03 01:47:01;;;;;;;8.60;4.82;;;;;;;;;;4998468;28;20448;-55
2022/06/03 01:49:45;;;;;;;7.77;4.13;;;;;;;;;;5000951;28;20072;-54
2022/06/03 01:52:16;;;;;;;7.18;4.50;;;;;;;;;;4997442;28;20269;-53
2022/06/03 01:54:41;;;;;;;8.40;4.45;;;;;;;;;;5002342;28;20470;-53
2022/06/03 01:57:16;;;;;;;9.20;4.80;;;;;;;;;;4993557;28;20030;-54
2022/06/03 01:59:44;;;;;;;9.23;4.28;;;;;;;;;;4996846;28;20292;-54
2022/06/03 02:02:16;;;;;;;6.85;4.45;;;;;;;;;;4994649;28;20113;-55
2022/06/03 02:04:41;;;;;;;7.53;4.35;;;;;;;;;;4998135;28;20120;-54
2022/06/03 02:07:14;;;;;;;9.13;4.73;;;;;;;;;;4998045;28;20112;-53
2022/06/03 02:09:52;;;;;;;7.13;4.25;;;;;;;;;;4994532;28;20272;-54
2022/06/03 02:12:23;;;;;;;7.25;4.00;;;;;;;;;;5001290;28;20033;-53
2022/06/03 02:14:49;;;;;;;6.55;4.35;;;;;;;;;;4996444;28;20030;-53
2022/06/03 02:17:43;;;;;;;7.88;4.47;;;;;;;;;;4999647;28;20031;-53
2022/06/03 02:20:18;;;;;;;8.18;4.88;;;;;;;;;;4945984;28;20086;-54
2022/06/03 02:22:52;;;;;;;10.10;5.07;;;;;;;;;;4996919;28;20040;-54
2022/06/03 02:25:17;;;;;;;8.05;4.63;;;;;;;;;;4994443;28;20015;-52
2022/06/03 02:27:52;;;;;;;8.60;5.03;;;;;;;;;;5001912;28;20512;-52
2022/06/03 02:30:26;;;;;;;7.93;5.00;;;;;;;;;;4998658;28;20093;-53
2022/06/03 02:32:52;;;;;;;9.20;5.15;;;;;;;;;;5016297;28;20042;-52
2022/06/03 02:35:20;;;;;;;7.60;5.25;;;;;;;;;;5018864;28;20489;-52
2022/06/03 02:37:49;;;;;;;7.30;4.35;;;;;;;;;;5017192;28;20056;-52
2022/06/03 02:40:18;;;;;;;8.07;4.70;;;;;;;;;;5017287;28;20045;-54
2022/06/03 02:42:49;;;;;;;9.57;5.07;;;;;;;;;;5015888;28;20085;-52
2022/06/03 02:45:17;;;;;;;10.45;4.70;;;;;;;;;;5017076;28;20480;-51
2022/06/03 02:47:58;;;;;;;7.82;4.95;;;;;;;;;;5014686;28;20507;-52
2022/06/03 02:50:49;;;;;;;7.20;4.70;;;;;;;;;;5000493;28;20144;-53
2022/06/03 02:53:14;;;;;;;7.22;4.25;;;;;;;;;;5000251;28;20087;-54
2022/06/03 02:55:55;;;;;;;9.93;4.53;;;;;;;;;;5020587;28;20415;-52
2022/06/03 02:58:26;;;;;;;7.38;4.32;;;;;;;;;;5019673;28;20029;-51
2022/06/03 03:00:51;;;;;;;7.88;4.78;;;;;;;;;;5022255;28;20021;-51
2022/06/03 03:03:23;;;;;;;7.43;4.33;;;;;;;;;;5021498;28;20491;-53
2022/06/03 03:06:09;;;;;;;7.78;4.80;;;;;;;;;;5021282;28;20654;-53
2022/06/03 03:08:53;;;;;;;7.85;5.10;;;;;;;;;;5014922;28;20488;-53
2022/06/03 03:11:37;;;;;;;8.43;5.20;;;;;;;;;;5020437;28;20432;-54
2022/06/03 03:14:21;;;;;;;7.85;5.28;;;;;;;;;;5018878;28;20029;-53
2022/06/03 03:16:58;;;;;;;7.35;5.28;;;;;;;;;;5012066;28;20018;-55
2022/06/03 03:19:25;;;;;;;8.45;5.10;;;;;;;;;;5022111;28;20420;-53
2022/06/03 03:22:02;;;;;;;6.65;4.72;;;;;;;;;;5015333;28;20002;-53
2022/06/03 03:24:46;;;;;;;8.70;5.03;;;;;;;;;;5016491;28;20021;-55
2022/06/03 03:27:29;;;;;;;9.05;4.70;;;;;;;;;;5018064;28;20028;-51
2022/06/03 03:30:04;;;;;;;6.65;4.35;;;;;;;;;;5022293;28;20839;-54
2022/06/03 03:32:44;;;;;;;8.52;4.68;;;;;;;;;;5006955;28;20054;-52
2022/06/03 03:35:12;;;;;;;7.90;4.70;;;;;;;;;;5005830;28;20549;-54
2022/06/03 03:37:49;;;;;;;7.70;4.72;;;;;;;;;;5002313;28;20021;-51
2022/06/03 03:40:33;;;;;;;7.45;5.05;;;;;;;;;;5010575;28;20022;-53
2022/06/03 03:43:01;;;;;;;8.15;4.43;;;;;;;;;;5008030;28;20053;-53
2022/06/03 03:45:54;;;;;;;8.55;4.65;;;;;;;;;;5009205;28;20670;-54
2022/06/03 03:48:38;;;;;;;8.63;4.63;;;;;;;;;;5002298;28;20026;-52
2022/06/03 03:51:16;;;;;;;8.05;4.80;;;;;;;;;;5011478;28;20042;-53
2022/06/03 03:53:53;;;;;;;8.23;4.50;;;;;;;;;;5005711;28;20123;-55
2022/06/03 03:56:26;;;;;;;7.53;4.45;;;;;;;;;;4978714;28;20040;-51
2022/06/03 03:59:03;;;;;;;8.73;4.57;;;;;;;;;;5000204;28;20703;-52
2022/06/03 04:01:32;;;;;;;7.20;5.18;;;;;;;;;;5003034;28;20084;-53
2022/06/03 04:04:07;;;;;;;8.90;4.53;;;;;;;;;;5003710;28;20022;-51
2022/06/03 04:06:36;;;;;;;7.85;4.85;;;;;;;;;;5001983;28;20122;-52
2022/06/03 04:09:19;;;;;;;7.93;4.97;;;;;;;;;;5006515;28;20030;-53
2022/06/03 04:12:14;;;;;;;8.93;4.93;;;;;;;;;;5002513;28;20382;-52
2022/06/03 04:14:58;;;;;;;9.80;5.82;;;;;;;;;;4989340;28;20069;-51
2022/06/03 04:17:26;;;;;;;9.75;5.07;;;;;;;;;;5000865;28;20018;-52
2022/06/03 04:19:52;;;;;;;8.02;5.20;;;;;;;;;;5001919;28;20042;-53
2022/06/03 04:22:31;;;;;;;8.70;5.00;;;;;;;;;;4997978;28;20018;-52
2022/06/03 04:25:20;;;;;;;11.27;6.03;;;;;;;;;;5005851;28;20028;-51
2022/06/03 04:27:58;;;;;;;9.48;5.30;;;;;;;;;;5012129;28;20104;-51
2022/06/03 04:30:23;;;;;;;7.45;5.30;;;;;;;;;;5006000;28;20046;-52
2022/06/03 04:33:07;;;;;;;9.30;5.23;;;;;;;;;;4995726;28;20018;-51
2022/06/03 04:35:38;;;;;;;9.25;4.78;;;;;;;;;;5000211;28;20276;-50
2022/06/03 04:38:22;;;;;;;7.88;5.18;;;;;;;;;;4983439;28;20634;-54
2022/06/03 04:40:47;;;;;;;7.70;4.97;;;;;;;;;;4997788;28;20036;-53
2022/06/03 04:43:18;;;;;;;8.43;5.45;;;;;;;;;;4998186;28;20421;-50
2022/06/03 04:46:02;;;;;;;8.38;4.68;;;;;;;;;;4992992;28;20022;-50
2022/06/03 04:48:27;;;;;;;9.77;5.15;;;;;;;;;;5000137;28;20117;-52
2022/06/03 04:51:05;;;;;;;10.83;4.80;;;;;;;;;;4999670;28;20046;-50
2022/06/03 04:53:49;;;;;;;10.75;5.18;;;;;;;;;;4998897;28;20292;-50
2022/06/03 04:56:32;;;;;;;8.55;5.03;;;;;;;;;;4998631;28;20014;-52
2022/06/03 04:59:00;;;;;;;9.05;4.80;;;;;;;;;;4996907;28;20019;-52
2022/06/03 05:01:36;;;;;;;10.30;5.63;;;;;;;;;;4998998;28;20041;-51
2022/06/03 05:04:04;;;;;;;10.18;5.28;;;;;;;;;;4995918;28;20953;-55
2022/06/03 05:06:48;;;;;;;8.07;4.75;;;;;;;;;;4994805;28;20038;-51
2022/06/03 05:09:29;;;;;;;11.07;6.05;;;;;;;;;;5002121;28;20088;-53
2022/06/03 05:12:03;;;;;;;8.30;4.85;;;;;;;;;;4992665;28;20030;-54
2022/06/03 05:14:47;;;;;;;9.02;5.38;;;;;;;;;;4986071;28;20010;-54
2022/06/03 05:17:21;;;;;;;11.30;5.28;;;;;;;;;;4996920;28;20014;-59
2022/06/03 05:19:51;;;;;;;10.10;4.60;;;;;;;;;;4990017;28;20490;-54
2022/06/03 05:22:20;;;;;;;7.53;4.93;;;;;;;;;;4986259;28;20033;-53
2022/06/03 05:25:00;;;;;;;10.38;4.65;;;;;;;;;;4997039;28;20037;-52
2022/06/03 05:27:43;;;;;;;8.30;4.55;;;;;;;;;;4998397;28;20022;-57
2022/06/03 05:30:08;;;;;;;8.63;5.15;;;;;;;;;;4997974;28;20133;-57
2022/06/03 05:32:53;;;;;;;11.43;5.80;;;;;;;;;;5014248;28;20080;-56
2022/06/03 05:35:24;;;;;;;10.05;5.57;;;;;;;;;;5012168;28;20156;-54
2022/06/03 05:38:08;;;;;;;10.93;5.55;;;;;;;;;;5012814;28;21612;-55
2022/06/03 05:40:51;;;;;;;11.48;5.40;;;;;;;;;;5015468;28;20456;-55
2022/06/03 05:43:35;;;;;;;12.15;5.53;;;;;;;;;;5018337;28;20091;-52
2022/06/03 05:46:00;;;;;;;11.63;5.00;;;;;;;;;;5013243;28;20471;-54
2022/06/03 05:48:44;;;;;;;9.77;5.43;;;;;;;;;;5014701;28;20571;-55
2022/06/03 05:51:28;;;;;;;12.65;5.47;;;;;;;;;;5018894;28;20489;-53
2022/06/03 05:54:12;;;;;;;9.80;5.10;;;;;;;;;;5016375;28;20580;-55
2022/06/03 05:56:52;;;;;;;8.90;5.20;;;;;;;;;;4997920;28;20053;-56
2022/06/03 05:59:36;;;;;;;9.68;4.90;;;;;;;;;;4995416;28;20076;-53
2022/06/03 06:02:04;;;;;;;10.43;5.20;;;;;;;;;;5013704;28;20030;-56
2022/06/03 06:04:48;;;;;;;11.02;5.22;;;;;;;;;;5016535;28;20405;-55
2022/06/03 06:07:14;;;;;;;12.02;5.25;;;;;;;;;;5014645;28;20029;-52
2022/06/03 06:09:51;;;;;;;8.20;5.10;;;;;;;;;;5016241;28;20025;-55
2022/06/03 06:12:22;;;;;;;9.95;5.03;;;;;;;;;;5011721;28;20072;-56
2022/06/03 06:14:50;;;;;;;8.52;4.97;;;;;;;;;;5010956;28;20041;-55
2022/06/03 06:17:34;;;;;;;9.10;5.03;;;;;;;;;;5009190;28;20572;-55
2022/06/03 06:20:05;;;;;;;7.03;4.63;;;;;;;;;;5014076;28;20060;-58
2022/06/03 06:22:30;;;;;;;9.10;4.75;;;;;;;;;;5012740;28;20456;-59
2022/06/03 06:25:03;;;;;;;11.02;5.20;;;;;;;;;;4995763;28;20088;-52
2022/06/03 06:27:38;;;;;;;9.00;4.93;;;;;;;;;;4996557;28;20113;-65
2022/06/03 06:30:21;;;;;;;12.02;5.03;;;;;;;;;;5013055;28;20120;-53
2022/06/03 06:32:53;;;;;;;9.13;5.18;;;;;;;;;;4984038;28;20112;-53
2022/06/03 06:35:33;;;;;;;7.13;4.57;;;;;;;;;;5019306;28;20476;-53
2022/06/03 06:38:17;;;;;;;10.43;5.47;;;;;;;;;;5019433;28;20153;-54
2022/06/03 06:40:50;;;;;;;10.73;5.40;;;;;;;;;;5020346;28;20040;-53
2022/06/03 06:43:27;;;;;;;8.95;5.30;;;;;;;;;;4999033;28;20028;-53
2022/06/03 06:45:55;;;;;;;10.75;5.30;;;;;;;;;;5023440;28;20420;-53
2022/06/03 06:48:40;;;;;;;7.22;5.22;;;;;;;;;;5002306;28;20021;-56
2022/06/03 06:51:18;;;;;;;8.77;5.18;;;;;;;;;;5008957;28;20041;-56
2022/06/03 06:53:48;;;;;;;9.90;5.20;;;;;;;;;;5018971;28;20026;-57
2022/06/03 06:56:13;;;;;;;8.35;5.53;;;;;;;;;;5013655;28;20028;-59
2022/06/03 06:58:45;;;;;;;8.67;4.93;;;;;;;;;;5018357;28;20017;-58
2022/06/03 07:01:11;;;;;;;8.57;4.82;;;;;;;;;;5014179;28;20503;-56
2022/06/03 07:03:39;;;;;;;8.75;5.05;;;;;;;;;;5019615;28;20040;-57
2022/06/03 07:06:06;;;;;;;15.13;5.68;;;;;;;;;;5022397;28;20035;-60
2022/06/03 07:08:38;;;;;;;9.13;4.75;;;;;;;;;;5025859;28;20101;-58
2022/06/03 07:11:23;;;;;;;7.10;4.70;;;;;;;;;;5002253;28;20141;-64
2022/06/03 07:14:05;;;;;;;9.13;4.60;;;;;;;;;;5024797;28;20108;-59
2022/06/03 07:19:49;;;;;;;10.23;5.43;;;;;;;;;;5022829;28;20040;-56
2022/06/03 07:22:17;;;;;;;7.93;5.07;;;;;;;;;;5014689;28;20026;-57
2022/06/03 07:24:45;;;;;;;8.05;4.93;;;;;;;;;;5018485;28;20266;-56
2022/06/03 07:27:13;;;;;;;8.75;4.82;;;;;;;;;;5019606;28;20087;-58
2022/06/03 07:30:05;;;;;;;9.27;4.93;;;;;;;;;;5029485;28;20033;-56
2022/06/03 07:32:34;;;;;;;8.85;4.80;;;;;;;;;;5018610;28;20038;-60
2022/06/03 07:35:01;;;;;;;7.72;4.47;;;;;;;;;;5005011;28;20532;-60
2022/06/03 07:37:30;;;;;;;7.45;4.60;;;;;;;;;;5016731;28;20455;-56
2022/06/03 07:39:59;;;;;;;11.73;4.32;;;;;;;;;;5018573;28;20025;-56
2022/06/03 07:42:24;;;;;;;7.95;4.88;;;;;;;;;;4999115;28;20040;-56
2022/06/03 07:45:10;;;;;;;9.57;5.10;;;;;;;;;;5016844;28;20029;-56
2022/06/03 07:47:35;;;;;;;8.32;4.32;;;;;;;;;;4994921;28;20029;-56
2022/06/03 07:50:02;;;;;;;7.43;4.70;;;;;;;;;;5000192;28;20040;-56
2022/06/03 07:52:32;;;;;;;8.38;4.40;;;;;;;;;;5015293;28;20033;-56
2022/06/03 07:54:57;;;;;;;7.70;4.60;;;;;;;;;;5019346;28;20108;-56
2022/06/03 07:57:24;;;;;;;8.13;4.15;;;;;;;;;;5014060;28;20112;-56
2022/06/03 07:59:49;;;;;;;8.70;4.13;;;;;;;;;;5019646;28;20022;-57
2022/06/03 08:02:17;;;;;;;6.72;4.22;;;;;;;;;;5011788;28;20464;-57
2022/06/03 08:04:42;;;;;;;7.53;4.43;;;;;;;;;;5021534;28;20516;-57
2022/06/03 08:12:56;;;;;;;8.63;3.83;;;;;;;;;;5015012;28;20084;-56
2022/06/03 08:15:22;;;;;;;8.27;4.18;;;;;;;;;;5019259;28;20057;-56
2022/06/03 08:17:47;;;;;;;8.52;4.47;;;;;;;;;;5021331;28;20486;-56
2022/06/03 08:20:16;;;;;;;9.30;4.78;;;;;;;;;;5016579;28;20037;-57
2022/06/03 08:22:44;;;;;;;6.95;4.07;;;;;;;;;;5016626;28;20028;-59
2022/06/03 08:25:09;;;;;;;6.32;4.10;;;;;;;;;;5018094;28;20029;-56
2022/06/03 08:27:35;;;;;;;9.73;4.33;;;;;;;;;;4999148;28;20021;-61
2022/06/03 08:30:00;;;;;;;8.07;4.18;;;;;;;;;;5012748;28;20272;-56
2022/06/03 08:32:27;;;;;;;7.13;4.10;;;;;;;;;;4997624;28;20549;-61
2022/06/03 08:34:52;;;;;;;5.72;3.97;;;;;;;;;;5020887;28;20276;-57
2022/06/03 08:37:19;;;;;;;6.40;4.43;;;;;;;;;;4998605;28;20477;-56
2022/06/03 08:39:44;;;;;;;7.30;4.40;;;;;;;;;;5009035;28;20017;-57
2022/06/03 08:42:10;;;;;;;6.95;3.85;;;;;;;;;;5019285;28;20029;-58
2022/06/03 08:44:41;;;;;;;7.18;4.38;;;;;;;;;;5013918;28;20064;-63
2022/06/03 08:47:12;;;;;;;7.43;4.22;;;;;;;;;;5001803;28;20079;-56
2022/06/03 08:49:43;;;;;;;6.57;4.25;;;;;;;;;;4998734;28;20024;-56
2022/06/03 08:52:09;;;;;;;6.38;4.07;;;;;;;;;;5017989;28;20415;-56
2022/06/03 08:54:39;;;;;;;9.93;4.35;;;;;;;;;;4995277;28;20022;-56
2022/06/03 08:57:23;;;;;;;6.95;4.38;;;;;;;;;;5001747;28;20017;-62
2022/06/03 08:59:50;;;;;;;11.50;4.63;;;;;;;;;;5017868;28;20080;-56
2022/06/03 09:02:20;;;;;;;8.43;4.28;;;;;;;;;;5009875;28;20057;-56
2022/06/03 09:04:46;;;;;;;8.15;4.35;;;;;;;;;;5010163;28;20037;-56
2022/06/03 09:07:32;;;;;;;6.90;4.15;;;;;;;;;;5010978;28;20030;-59
2022/06/03 09:10:06;;;;;;;7.90;4.45;;;;;;;;;;5008743;28;20096;-57
2022/06/03 09:12:32;;;;;;;7.18;3.90;;;;;;;;;;5009198;28;20036;-59
2022/06/03 09:15:00;;;;;;;7.97;3.97;;;;;;;;;;5010338;28;20438;-57
2022/06/03 09:17:25;;;;;;;8.30;4.47;;;;;;;;;;5006982;28;20279;-57
2022/06/03 09:19:50;;;;;;;6.65;4.25;;;;;;;;;;5016125;28;20313;-56
2022/06/03 09:22:20;;;;;;;8.55;4.10;;;;;;;;;;5012432;28;20700;-57
2022/06/03 09:24:45;;;;;;;;;;;;;;;;;;5007156;28;20025;-58
2022/06/03 09:27:13;;;;;;;8.52;4.20;;;;;;;;;;5015248;28;19983;-59
2022/06/03 09:29:39;;;;;;;5.65;3.42;;;;;;;;;;5011382;28;20095;-59
2022/06/03 09:32:04;;;;;;;7.63;4.40;;;;;;;;;;5018801;28;20053;-57
2022/06/03 09:34:33;;;;;;;5.85;4.10;;;;;;;;;;5011616;28;20283;-56
2022/06/03 09:36:59;;;;;;;9.07;4.30;;;;;;;;;;5016507;28;20022;-56
2022/06/03 09:39:24;;;;;;;6.35;4.43;;;;;;;;;;5011893;28;20563;-61
2022/06/03 09:41:53;;;;;;;7.00;3.90;;;;;;;;;;5011898;28;20079;-56
2022/06/03 09:44:18;;;;;;;7.47;3.95;;;;;;;;;;5013471;28;20269;-59
2022/06/03 09:46:44;;;;;;;6.65;4.40;;;;;;;;;;5016087;28;20072;-58
2022/06/03 09:49:09;;;;;;;6.97;3.78;;;;;;;;;;5016273;28;20112;-58
2022/06/03 09:51:56;;;;;;;5.70;3.72;;;;;;;;;;5018115;28;20022;-58
2022/06/03 09:54:26;;;;;;;6.80;3.80;;;;;;;;;;4996926;28;20084;-59
2022/06/03 09:56:52;;;;;;;6.63;4.07;;;;;;;;;;5015922;28;20504;-67
2022/06/03 09:59:19;;;;;;;5.35;3.30;;;;;;;;;;5006608;28;20029;-56
2022/06/03 10:01:44;;;;;;;5.15;3.78;;;;;;;;;;5012435;28;20052;-60
2022/06/03 10:04:10;;;;;;;6.18;3.53;;;;;;;;;;5019829;28;20496;-56
2022/06/03 10:06:46;;;;;;;5.60;3.40;;;;;;;;;;5009947;28;20104;-58
2022/06/03 10:17:41;;;;;;;6.03;3.33;;;;;;;;;;5019779;28;20542;-61
2022/06/03 10:20:08;;;;;;;6.75;3.80;;;;;;;;;;5015318;28;20025;-61
2022/06/03 10:22:34;;;;;;;6.47;3.72;;;;;;;;;;5022066;28;20544;-60
2022/06/03 10:24:59;;;;;;;8.27;4.13;;;;;;;;;;5015958;28;20216;-57
2022/06/03 10:27:26;;;;;;;5.80;3.72;;;;;;;;;;5018064;28;20022;-56
2022/06/03 10:29:52;;;;;;;4.95;3.78;;;;;;;;;;5012328;28;20134;-56
2022/06/03 10:32:19;;;;;;;6.15;3.42;;;;;;;;;;5013483;28;20877;-57
2022/06/03 10:34:44;;;;;;;6.13;3.60;;;;;;;;;;5020691;28;20030;-58
2022/06/03 10:37:10;;;;;;;7.68;4.00;;;;;;;;;;5021109;28;20087;-57
2022/06/03 10:39:36;;;;;;;7.95;4.18;;;;;;;;;;5015248;28;20026;-56
2022/06/03 10:42:03;;;;;;;7.90;3.88;;;;;;;;;;5020006;28;20119;-56
2022/06/03 10:44:29;;;;;;;6.03;3.95;;;;;;;;;;5016251;28;20038;-56
2022/06/03 10:47:02;;;;;;;5.88;3.83;;;;;;;;;;5019233;28;20060;-56
2022/06/03 10:49:29;;;;;;;8.32;4.13;;;;;;;;;;5019028;28;20037;-60
2022/06/03 11:02:52;;;;;;;6.47;3.80;;;;;;;;;;5018927;28;20068;-56
2022/06/03 11:05:20;;;;;;;7.07;4.10;;;;;;;;;;5017551;28;20732;-56
2022/06/03 11:07:55;;;;;;;6.78;3.95;;;;;;;;;;5021815;28;20413;-56
2022/06/03 11:10:21;;;;;;;6.32;3.90;;;;;;;;;;4996620;28;20829;-57
2022/06/03 11:12:46;;;;;;;7.05;4.22;;;;;;;;;;5019609;28;20118;-56
2022/06/03 11:15:23;;;;;;;5.87;4.00;;;;;;;;;;5017481;28;20092;-59
2022/06/03 11:17:49;;;;;;;6.50;3.85;;;;;;;;;;5013556;28;20362;-57
2022/06/03 11:20:18;;;;;;;10.00;4.07;;;;;;;;;;5022754;28;20553;-56
2022/06/03 11:22:45;;;;;;;7.13;4.05;;;;;;;;;;5015978;28;20540;-61
2022/06/03 11:25:13;;;;;;;5.28;3.53;;;;;;;;;;5013030;28;20049;-56
2022/06/03 11:27:46;;;;;;;6.80;3.72;;;;;;;;;;5013165;28;20119;-56
2022/06/03 11:30:27;;;;;;;7.65;3.97;;;;;;;;;;5011138;28;20386;-60
2022/06/03 11:32:54;;;;;;;5.93;3.83;;;;;;;;;;5013758;28;20045;-57
2022/06/03 11:35:39;;;;;;;8.10;3.75;;;;;;;;;;5020889;28;20401;-56
2022/06/03 11:38:05;;;;;;;9.43;4.03;;;;;;;;;;5012046;28;20026;-56
2022/06/03 11:40:34;;;;;;;6.88;3.65;;;;;;;;;;5012303;28;20017;-55
2022/06/03 11:43:01;;;;;;;6.20;3.33;;;;;;;;;;5001271;28;20044;-56
2022/06/03 11:45:47;;;;;;;6.30;3.70;;;;;;;;;;5015298;28;20431;-56
2022/06/03 11:48:12;;;;;;;5.82;3.45;;;;;;;;;;5013933;28;20037;-56
2022/06/03 11:50:38;;;;;;;5.45;3.65;;;;;;;;;;5013056;28;20032;-57
2022/06/03 11:53:03;;;;;;;5.10;3.43;;;;;;;;;;5014772;28;20028;-56
2022/06/03 11:55:29;;;;;;;7.13;3.83;;;;;;;;;;5014153;28;20296;-57
2022/06/03 11:58:00;;;;;;;5.63;3.42;;;;;;;;;;5015158;28;20500;-57
2022/06/03 12:00:25;;;;;;;5.20;3.53;;;;;;;;;;5020970;28;20539;-56
2022/06/03 12:03:00;;;;;;;7.25;3.83;;;;;;;;;;5011746;28;20025;-56
2022/06/03 12:05:27;;;;;;;5.43;3.35;;;;;;;;;;5014860;28;20373;-56
2022/06/03 12:07:59;;;;;;;6.22;3.70;;;;;;;;;;5016021;28;20001;-57
2022/06/03 12:10:36;;;;;;;6.57;3.95;;;;;;;;;;5005819;28;21044;-56
2022/06/03 12:13:17;;;;;;;7.43;4.00;;;;;;;;;;5013568;28;20022;-56
2022/06/03 12:15:55;;;;;;;7.88;3.53;;;;;;;;;;5008959;28;20018;-56
2022/06/03 12:18:32;;;;;;;7.20;3.50;;;;;;;;;;5000339;28;20088;-56
2022/06/03 12:21:00;;;;;;;5.90;3.78;;;;;;;;;;5016009;28;20029;-56
2022/06/03 12:23:25;;;;;;;5.97;4.22;;;;;;;;;;4997280;28;20837;-56
2022/06/03 12:25:54;;;;;;;5.13;3.08;;;;;;;;;;5013176;28;20092;-57
2022/06/03 12:28:25;;;;;;;5.97;3.30;;;;;;;;;;5017028;28;20039;-62
2022/06/03 12:30:52;;;;;;;5.75;3.28;;;;;;;;;;5013643;28;20053;-56
2022/06/03 12:33:36;;;;;;;4.55;3.70;;;;;;;;;;5011818;28;20153;-56
2022/06/03 12:36:03;;;;;;;5.82;3.70;;;;;;;;;;5016621;28;20029;-58
2022/06/03 12:38:28;;;;;;;8.07;3.63;;;;;;;;;;5008250;28;20072;-57
2022/06/03 12:40:54;;;;;;;4.80;3.20;;;;;;;;;;5007871;28;20141;-56
2022/06/03 12:43:23;;;;;;;4.88;3.30;;;;;;;;;;5010598;28;20033;-56
2022/06/03 12:46:00;;;;;;;8.25;3.38;;;;;;;;;;5012209;28;21363;-56
2022/06/03 12:48:35;;;;;;;5.97;3.50;;;;;;;;;;4997708;28;20030;-58
2022/06/03 12:51:15;;;;;;;6.85;3.55;;;;;;;;;;5015853;28;20045;-59
2022/06/03 12:53:41;;;;;;;6.15;3.58;;;;;;;;;;5017599;28;20047;-57
2022/06/03 12:56:11;;;;;;;4.47;3.25;;;;;;;;;;5008188;28;20033;-56
2022/06/03 12:58:36;;;;;;;7.72;3.63;;;;;;;;;;5010680;28;20033;-58
2022/06/03 13:01:02;;;;;;;5.93;3.33;;;;;;;;;;5010459;28;20028;-56
2022/06/03 13:03:30;;;;;;;5.70;3.20;;;;;;;;;;5017961;28;20284;-57
2022/06/03 13:05:56;;;;;;;7.88;3.45;;;;;;;;;;5017765;28;20337;-56
2022/06/03 13:08:27;;;;;;;6.35;3.05;;;;;;;;;;5009677;28;20030;-57
2022/06/03 13:10:53;;;;;;;4.72;3.15;;;;;;;;;;5010332;28;20088;-56
2022/06/03 13:13:38;;;;;;;4.90;3.53;;;;;;;;;;5017946;28;20547;-56
2022/06/03 13:16:16;;;;;;;4.70;3.10;;;;;;;;;;5020001;28;20334;-58
2022/06/03 13:18:42;;;;;;;6.95;3.58;;;;;;;;;;5021132;28;20454;-58
2022/06/03 13:21:07;;;;;;;6.28;3.55;;;;;;;;;;5010362;28;20622;-56
2022/06/03 13:23:38;;;;;;;5.17;3.47;;;;;;;;;;5011400;28;20029;-56
2022/06/03 13:26:22;;;;;;;6.35;3.63;;;;;;;;;;5010741;28;21616;-55
2022/06/03 13:28:53;;;;;;;7.55;3.42;;;;;;;;;;5023353;28;20056;-57
2022/06/03 13:31:41;;;;;;;5.43;3.38;;;;;;;;;;5016179;28;20081;-56
2022/06/03 13:34:10;;;;;;;4.63;3.30;;;;;;;;;;5008230;28;20027;-56
2022/06/03 13:36:51;;;;;;;4.97;3.35;;;;;;;;;;5017284;28;20036;-57
2022/06/03 13:39:28;;;;;;;5.97;3.60;;;;;;;;;;5019004;28;20044;-57
2022/06/03 13:44:52;;;;;;;6.30;3.50;;;;;;;;;;5010303;28;20115;-57
2022/06/03 13:47:18;;;;;;;6.57;3.30;;;;;;;;;;5014251;28;20067;-56
2022/06/03 13:50:09;;;;;;;6.80;3.30;;;;;;;;;;5017732;28;20052;-57
2022/06/03 13:52:35;;;;;;;6.65;3.72;;;;;;;;;;5012329;28;20048;-56
2022/06/03 13:55:01;;;;;;;7.15;3.88;;;;;;;;;;5010835;28;20014;-54
2022/06/03 13:57:30;;;;;;;6.63;3.90;;;;;;;;;;5020806;28;20029;-54
2022/06/03 14:00:06;;;;;;;7.18;4.90;;;;;;;;;;5020205;28;20032;-55
2022/06/03 14:02:35;;;;;;;6.00;3.90;;;;;;;;;;5009972;28;20036;-55
2022/06/03 14:05:13;;;;;;;5.90;4.35;;;;;;;;;;5012561;28;20087;-54
2022/06/03 14:07:39;;;;;;;8.75;4.60;;;;;;;;;;5001343;28;20514;-55
2022/06/03 14:10:05;;;;;;;8.00;4.70;;;;;;;;;;5010822;28;20093;-54
2022/06/03 14:12:32;;;;;;;8.35;4.50;;;;;;;;;;5008624;28;20590;-55
2022/06/03 14:15:11;;;;;;;7.88;4.55;;;;;;;;;;5014531;28;20029;-54
2022/06/03 14:17:45;;;;;;;8.43;4.60;;;;;;;;;;5016793;28;20025;-54
2022/06/03 14:20:11;;;;;;;7.03;5.13;;;;;;;;;;5023620;28;20052;-56
2022/06/03 14:22:40;;;;;;;9.20;4.70;;;;;;;;;;5006715;28;20578;-59
2022/06/03 14:25:20;;;;;;;8.77;4.63;;;;;;;;;;5011233;28;20033;-61
2022/06/03 14:27:48;;;;;;;7.95;4.63;;;;;;;;;;5016681;28;20037;-56
2022/06/03 14:30:21;;;;;;;7.07;4.80;;;;;;;;;;5015097;28;20017;-63
2022/06/03 14:32:50;;;;;;;7.50;4.70;;;;;;;;;;5018643;28;20409;-58
2022/06/03 14:35:27;;;;;;;7.35;4.80;;;;;;;;;;5009135;28;20018;-59
2022/06/03 14:38:00;;;;;;;9.00;4.57;;;;;;;;;;5016863;28;20039;-60
2022/06/03 14:40:27;;;;;;;7.47;4.70;;;;;;;;;;4997587;28;20018;-68
2022/06/03 14:42:54;;;;;;;8.48;4.70;;;;;;;;;;5009777;28;20052;-63
2022/06/03 14:45:20;;;;;;;7.90;4.93;;;;;;;;;;5012256;28;20689;-57
2022/06/03 14:47:56;;;;;;;9.50;4.75;;;;;;;;;;4997949;28;20018;-57
2022/06/03 14:50:28;;;;;;;7.63;4.90;;;;;;;;;;5019136;28;20754;-72
2022/06/03 14:53:12;;;;;;;12.30;5.35;;;;;;;;;;5014550;28;20029;-57
2022/06/03 14:55:39;;;;;;;8.63;5.32;;;;;;;;;;5012342;28;20517;-56
2022/06/03 14:58:14;;;;;;;7.00;5.10;;;;;;;;;;5010241;28;20026;-57
2022/06/03 15:00:42;;;;;;;7.53;5.03;;;;;;;;;;5017558;28;20067;-58
2022/06/03 15:03:15;;;;;;;8.05;4.97;;;;;;;;;;5012356;28;20034;-70
2022/06/03 15:05:46;;;;;;;8.35;4.93;;;;;;;;;;5014364;28;20125;-66
2022/06/03 15:08:14;;;;;;;8.43;4.75;;;;;;;;;;5000851;28;20108;-71
2022/06/03 15:10:40;;;;;;;9.57;4.95;;;;;;;;;;5011800;28;20045;-63
2022/06/03 15:13:05;;;;;;;8.50;5.35;;;;;;;;;;5014957;28;20060;-58
2022/06/03 15:15:35;;;;;;;8.33;4.93;;;;;;;;;;5012895;28;20068;-59
2022/06/03 15:18:14;;;;;;;6.60;4.70;;;;;;;;;;5020813;28;20260;-57
2022/06/03 15:20:39;;;;;;;10.17;5.80;;;;;;;;;;5006963;28;20055;-55
2022/06/03 15:23:05;;;;;;;6.25;5.03;;;;;;;;;;5001352;28;20408;-57
2022/06/03 15:25:30;;;;;;;7.10;5.00;;;;;;;;;;4998502;28;20402;-57
2022/06/03 15:27:57;;;;;;;8.32;5.38;;;;;;;;;;5016406;28;20276;-58
2022/06/03 15:30:26;;;;;;;9.50;5.40;;;;;;;;;;5025356;28;20043;-56
2022/06/03 15:32:51;;;;;;;8.38;4.90;;;;;;;;;;5023988;28;20136;-56
2022/06/03 15:35:25;;;;;;;7.97;5.47;;;;;;;;;;5009808;28;20116;-55
2022/06/03 15:37:51;;;;;;;8.02;4.53;;;;;;;;;;5027388;28;20025;-59
2022/06/03 15:40:25;;;;;;;6.72;4.65;;;;;;;;;;5005108;28;20032;-58
2022/06/03 15:42:51;;;;;;;9.43;4.55;;;;;;;;;;5018463;28;20394;-55
2022/06/03 15:45:40;;;;;;;6.50;4.55;;;;;;;;;;5017317;28;20021;-56